sensor_id;sensor_type;location;lat;lon;timestamp;pressure;altitude;pressure_sealevel;temperature;humidity
58056;BME280;53159;55.152;36.614;2022-10-04T14:25:26;98829.38;;;8.00;100.00
58056;BME280;53159;55.152;36.614;2022-10-04T14:28:26;98851.06;;;8.07;100.00
58056;BME280;53159;55.152;36.614;2022-10-04T14:31:40;98850.00;;;7.97;100.00
58056;BME280;53159;55.152;36.614;2022-10-04T14:34:55;98856.72;;;7.90;100.00
58056;BME280;53159;55.152;36.614;2022-10-04T14:45:31;98826.44;;;7.45;100.00
58056;BME280;53159;55.152;36.614;2022-10-04T14:48:15;98865.63;;;7.65;100.00
58056;BME280;53159;55.152;36.614;2022-10-04T14:51:13;98821.94;;;7.36;100.00
58056;BME280;53159;55.152;36.614;2022-10-04T14:57:06;98873.84;;;7.49;100.00
58056;BME280;53159;55.152;36.614;2022-10-04T14:59:58;98855.44;;;7.35;100.00
58056;BME280;53159;55.152;36.614;2022-10-04T15:07:47;98840.63;;;7.28;100.00
58056;BME280;53159;55.152;36.614;2022-10-04T15:10:29;98838.66;;;7.17;100.00
58056;BME280;53159;55.152;36.614;2022-10-04T15:13:02;98827.41;;;7.14;100.00
58056;BME280;53159;55.152;36.614;2022-10-04T15:16:07;98876.34;;;7.46;100.00
58056;BME280;53159;55.152;36.614;2022-10-04T15:23:58;98860.19;;;7.18;100.00
58056;BME280;53159;55.152;36.614;2022-10-04T15:29:20;98831.09;;;6.90;100.00
58056;BME280;53159;55.152;36.614;2022-10-04T15:31:58;98891.31;;;7.24;100.00
58056;BME280;53159;55.152;36.614;2022-10-04T15:41:29;98898.03;;;7.19;100.00
58056;BME280;53159;55.152;36.614;2022-10-04T15:43:42;98843.94;;;6.87;100.00
58056;BME280;53159;55.152;36.614;2022-10-04T15:46:45;98912.69;;;7.20;100.00
58056;BME280;53159;55.152;36.614;2022-10-04T15:52:43;98860.13;;;6.83;100.00
58056;BME280;53159;55.152;36.614;2022-10-04T16:04:39;98899.00;;;6.89;100.00
58056;BME280;53159;55.152;36.614;2022-10-04T16:07:30;98903.28;;;6.88;100.00
58056;BME280;53159;55.152;36.614;2022-10-04T16:29:30;98891.31;;;6.58;100.00
58056;BME280;53159;55.152;36.614;2022-10-04T16:32:21;98898.94;;;6.55;100.00
58056;BME280;53159;55.152;36.614;2022-10-04T16:35:05;98862.81;;;6.23;100.00
58056;BME280;53159;55.152;36.614;2022-10-04T16:43:29;98883.28;;;6.19;100.00
58056;BME280;53159;55.152;36.614;2022-10-04T16:56:29;98865.34;;;5.93;100.00
58056;BME280;53159;55.152;36.614;2022-10-04T16:59:07;98923.03;;;6.27;100.00
58056;BME280;53159;55.152;36.614;2022-10-04T17:04:29;98891.38;;;6.02;100.00
58056;BME280;53159;55.152;36.614;2022-10-04T17:09:52;98883.59;;;5.99;100.00
58056;BME280;53159;55.152;36.614;2022-10-04T17:18:09;98936.59;;;6.50;100.00
58056;BME280;53159;55.152;36.614;2022-10-04T17:29:19;98933.53;;;6.62;100.00
58056;BME280;53159;55.152;36.614;2022-10-04T17:31:58;98935.25;;;6.63;100.00
58056;BME280;53159;55.152;36.614;2022-10-04T17:34:49;98904.53;;;6.40;100.00
58056;BME280;53159;55.152;36.614;2022-10-04T17:43:34;98916.84;;;6.51;100.00
58056;BME280;53159;55.152;36.614;2022-10-04T17:46:35;98935.13;;;6.58;100.00
58056;BME280;53159;55.152;36.614;2022-10-04T17:49:26;98900.31;;;6.42;100.00
58056;BME280;53159;55.152;36.614;2022-10-04T17:52:23;98881.84;;;6.28;100.00
58056;BME280;53159;55.152;36.614;2022-10-04T17:55:18;98866.09;;;6.18;100.00
58056;BME280;53159;55.152;36.614;2022-10-04T17:57:59;98879.66;;;6.12;100.00
58056;BME280;53159;55.152;36.614;2022-10-04T18:00:48;98893.56;;;6.19;100.00
58056;BME280;53159;55.152;36.614;2022-10-04T18:03:21;98883.94;;;6.11;100.00
58056;BME280;53159;55.152;36.614;2022-10-04T18:06:10;98910.78;;;6.20;100.00
58056;BME280;53159;55.152;36.614;2022-10-04T18:11:40;98932.59;;;6.31;100.00
58056;BME280;53159;55.152;36.614;2022-10-04T18:17:20;98879.66;;;5.85;100.00
58056;BME280;53159;55.152;36.614;2022-10-04T18:20:00;98927.66;;;6.10;100.00
58056;BME280;53159;55.152;36.614;2022-10-04T18:22:47;98915.50;;;6.04;100.00
58056;BME280;53159;55.152;36.614;2022-10-04T18:25:17;98912.09;;;6.05;100.00
58056;BME280;53159;55.152;36.614;2022-10-04T18:30:56;98948.94;;;6.32;100.00
58056;BME280;53159;55.152;36.614;2022-10-04T18:33:29;98909.63;;;6.10;100.00
58056;BME280;53159;55.152;36.614;2022-10-04T18:36:17;98953.22;;;6.31;100.00
58056;BME280;53159;55.152;36.614;2022-10-04T18:39:01;98919.25;;;6.16;100.00
58056;BME280;53159;55.152;36.614;2022-10-04T18:41:29;98930.72;;;6.25;100.00
58056;BME280;53159;55.152;36.614;2022-10-04T18:44:26;98901.88;;;6.08;100.00
58056;BME280;53159;55.152;36.614;2022-10-04T18:47:00;98908.00;;;6.12;100.00
58056;BME280;53159;55.152;36.614;2022-10-04T18:49:30;98901.84;;;6.07;100.00
58056;BME280;53159;55.152;36.614;2022-10-04T18:54:59;98953.66;;;6.45;100.00
58056;BME280;53159;55.152;36.614;2022-10-04T18:57:39;98954.50;;;6.45;100.00
58056;BME280;53159;55.152;36.614;2022-10-04T19:00:57;98904.59;;;6.13;100.00
58056;BME280;53159;55.152;36.614;2022-10-04T19:04:05;98926.63;;;6.32;100.00
58056;BME280;53159;55.152;36.614;2022-10-04T19:06:40;98907.44;;;6.22;100.00
58056;BME280;53159;55.152;36.614;2022-10-04T19:09:21;98916.00;;;6.21;100.00
58056;BME280;53159;55.152;36.614;2022-10-04T19:12:03;98895.22;;;6.15;100.00
58056;BME280;53159;55.152;36.614;2022-10-04T19:15:18;98899.47;;;6.15;100.00
58056;BME280;53159;55.152;36.614;2022-10-04T19:17:42;98901.97;;;6.11;100.00
58056;BME280;53159;55.152;36.614;2022-10-04T19:20:57;98928.09;;;6.24;100.00
58056;BME280;53159;55.152;36.614;2022-10-04T19:26:36;98904.19;;;5.99;100.00
58056;BME280;53159;55.152;36.614;2022-10-04T19:35:27;98957.28;;;6.23;100.00
58056;BME280;53159;55.152;36.614;2022-10-04T19:40:49;98918.84;;;6.02;100.00
58056;BME280;53159;55.152;36.614;2022-10-04T19:43:34;98951.31;;;6.24;100.00
58056;BME280;53159;55.152;36.614;2022-10-04T19:48:51;98960.50;;;6.16;100.00
58056;BME280;53159;55.152;36.614;2022-10-04T19:51:42;98893.09;;;5.74;100.00
58056;BME280;53159;55.152;36.614;2022-10-04T19:54:13;98918.28;;;5.85;100.00
58056;BME280;53159;55.152;36.614;2022-10-04T19:56:48;98947.19;;;6.02;100.00
58056;BME280;53159;55.152;36.614;2022-10-04T19:59:19;98932.22;;;5.91;100.00
58056;BME280;53159;55.152;36.614;2022-10-04T20:01:51;98912.94;;;5.78;100.00
58056;BME280;53159;55.152;36.614;2022-10-04T20:04:19;98920.03;;;5.86;100.00
58056;BME280;53159;55.152;36.614;2022-10-04T20:07:23;98948.97;;;6.04;100.00
58056;BME280;53159;55.152;36.614;2022-10-04T20:18:01;98904.75;;;5.90;100.00
58056;BME280;53159;55.152;36.614;2022-10-04T20:23:50;98911.34;;;5.82;100.00
58056;BME280;53159;55.152;36.614;2022-10-04T20:26:36;98939.94;;;5.91;100.00
58056;BME280;53159;55.152;36.614;2022-10-04T20:32:10;98933.00;;;5.89;100.00
58056;BME280;53159;55.152;36.614;2022-10-04T20:35:07;98955.47;;;5.93;100.00
58056;BME280;53159;55.152;36.614;2022-10-04T20:48:25;98920.53;;;5.74;100.00
58056;BME280;53159;55.152;36.614;2022-10-04T20:50:53;98947.88;;;5.97;100.00
58056;BME280;53159;55.152;36.614;2022-10-04T20:53:29;98919.72;;;5.76;100.00
58056;BME280;53159;55.152;36.614;2022-10-04T20:56:22;98907.50;;;5.69;100.00
58056;BME280;53159;55.152;36.614;2022-10-04T20:59:02;98903.66;;;5.56;100.00
58056;BME280;53159;55.152;36.614;2022-10-04T21:01:35;98913.41;;;5.67;100.00
58056;BME280;53159;55.152;36.614;2022-10-04T21:07:02;98949.06;;;5.81;100.00
58056;BME280;53159;55.152;36.614;2022-10-04T21:09:33;98919.34;;;5.64;100.00
58056;BME280;53159;55.152;36.614;2022-10-04T21:12:03;98908.03;;;5.59;100.00
58056;BME280;53159;55.152;36.614;2022-10-04T21:14:34;98914.31;;;5.67;100.00
58056;BME280;53159;55.152;36.614;2022-10-04T21:19:48;98884.38;;;5.43;100.00
58056;BME280;53159;55.152;36.614;2022-10-04T21:27:34;98942.88;;;5.75;100.00
58056;BME280;53159;55.152;36.614;2022-10-04T21:30:06;98913.88;;;5.53;100.00
58056;BME280;53159;55.152;36.614;2022-10-04T21:32:35;98891.25;;;5.44;100.00
58056;BME280;53159;55.152;36.614;2022-10-04T21:35:06;98923.69;;;5.65;100.00
58056;BME280;53159;55.152;36.614;2022-10-04T21:37:35;98956.78;;;5.81;100.00
58056;BME280;53159;55.152;36.614;2022-10-04T21:40:06;98935.91;;;5.72;100.00
58056;BME280;53159;55.152;36.614;2022-10-04T21:42:33;98930.66;;;5.69;100.00
58056;BME280;53159;55.152;36.614;2022-10-04T21:45:01;98950.91;;;5.84;100.00
58056;BME280;53159;55.152;36.614;2022-10-04T21:47:30;98893.22;;;5.52;100.00
58056;BME280;53159;55.152;36.614;2022-10-04T21:49:58;98938.50;;;5.72;100.00
58056;BME280;53159;55.152;36.614;2022-10-04T21:52:25;98910.75;;;5.63;100.00
58056;BME280;53159;55.152;36.614;2022-10-04T21:54:52;98942.91;;;5.76;100.00
58056;BME280;53159;55.152;36.614;2022-10-04T21:57:19;98924.69;;;5.70;100.00
58056;BME280;53159;55.152;36.614;2022-10-04T21:59:48;98900.13;;;5.53;100.00
58056;BME280;53159;55.152;36.614;2022-10-04T22:02:16;98894.88;;;5.49;100.00
58056;BME280;53159;55.152;36.614;2022-10-04T22:04:44;98943.25;;;5.87;100.00
58056;BME280;53159;55.152;36.614;2022-10-04T22:07:11;98931.91;;;5.80;100.00
58056;BME280;53159;55.152;36.614;2022-10-04T22:09:39;98896.81;;;5.57;100.00
58056;BME280;53159;55.152;36.614;2022-10-04T22:12:06;98919.47;;;5.67;100.00
58056;BME280;53159;55.152;36.614;2022-10-04T22:14:33;98914.50;;;5.73;100.00
58056;BME280;53159;55.152;36.614;2022-10-04T22:17:00;98939.91;;;5.90;100.00
58056;BME280;53159;55.152;36.614;2022-10-04T22:19:28;98930.31;;;5.84;100.00
58056;BME280;53159;55.152;36.614;2022-10-04T22:21:57;98945.22;;;5.94;100.00
58056;BME280;53159;55.152;36.614;2022-10-04T22:24:28;98952.25;;;6.00;100.00
58056;BME280;53159;55.152;36.614;2022-10-04T22:26:56;98909.63;;;5.82;100.00
58056;BME280;53159;55.152;36.614;2022-10-04T22:29:22;98935.13;;;6.01;100.00
58056;BME280;53159;55.152;36.614;2022-10-04T22:31:51;98899.25;;;5.79;100.00
58056;BME280;53159;55.152;36.614;2022-10-04T22:34:20;98932.28;;;5.93;100.00
58056;BME280;53159;55.152;36.614;2022-10-04T22:36:48;98899.91;;;5.74;100.00
58056;BME280;53159;55.152;36.614;2022-10-04T22:39:18;98950.63;;;6.02;100.00
58056;BME280;53159;55.152;36.614;2022-10-04T22:42:00;98892.97;;;5.71;100.00
58056;BME280;53159;55.152;36.614;2022-10-04T22:44:36;98921.78;;;5.87;100.00
58056;BME280;53159;55.152;36.614;2022-10-04T22:47:09;98911.44;;;5.85;100.00
58056;BME280;53159;55.152;36.614;2022-10-04T22:49:43;98919.25;;;5.88;100.00
58056;BME280;53159;55.152;36.614;2022-10-04T22:52:14;98905.88;;;5.73;100.00
58056;BME280;53159;55.152;36.614;2022-10-04T22:54:45;98918.19;;;5.81;100.00
58056;BME280;53159;55.152;36.614;2022-10-04T22:57:15;98929.53;;;5.87;100.00
58056;BME280;53159;55.152;36.614;2022-10-04T22:59:46;98915.38;;;5.74;100.00
58056;BME280;53159;55.152;36.614;2022-10-04T23:02:16;98920.53;;;5.74;100.00
58056;BME280;53159;55.152;36.614;2022-10-04T23:04:53;98942.28;;;5.84;100.00
58056;BME280;53159;55.152;36.614;2022-10-04T23:07:22;98900.44;;;5.62;100.00
58056;BME280;53159;55.152;36.614;2022-10-04T23:09:49;98924.19;;;5.80;100.00
58056;BME280;53159;55.152;36.614;2022-10-04T23:12:17;98904.00;;;5.67;100.00
58056;BME280;53159;55.152;36.614;2022-10-04T23:14:44;98945.88;;;5.89;100.00
58056;BME280;53159;55.152;36.614;2022-10-04T23:20:14;98937.38;;;5.91;100.00
58056;BME280;53159;55.152;36.614;2022-10-04T23:22:44;98919.84;;;5.79;100.00
58056;BME280;53159;55.152;36.614;2022-10-04T23:25:29;98896.09;;;5.61;100.00
58056;BME280;53159;55.152;36.614;2022-10-04T23:27:59;98926.75;;;5.80;100.00
58056;BME280;53159;55.152;36.614;2022-10-04T23:30:28;98888.41;;;5.62;100.00
58056;BME280;53159;55.152;36.614;2022-10-04T23:32:59;98898.94;;;5.70;100.00
58056;BME280;53159;55.152;36.614;2022-10-04T23:35:31;98909.50;;;5.78;100.00
58056;BME280;53159;55.152;36.614;2022-10-04T23:38:00;98912.13;;;5.79;100.00
58056;BME280;53159;55.152;36.614;2022-10-04T23:40:34;98913.72;;;5.76;100.00
58056;BME280;53159;55.152;36.614;2022-10-04T23:43:04;98902.22;;;5.64;100.00
58056;BME280;53159;55.152;36.614;2022-10-04T23:45:33;98897.91;;;5.63;100.00
58056;BME280;53159;55.152;36.614;2022-10-04T23:48:04;98902.09;;;5.61;100.00
58056;BME280;53159;55.152;36.614;2022-10-04T23:50:39;98887.19;;;5.51;100.00
58056;BME280;53159;55.152;36.614;2022-10-04T23:53:18;98908.97;;;5.61;100.00
58056;BME280;53159;55.152;36.614;2022-10-04T23:55:47;98946.84;;;5.92;100.00
58056;BME280;53159;55.152;36.614;2022-10-04T23:58:23;98903.22;;;5.70;100.00
